sensor_id;sensor_type;location;lat;lon;timestamp;P1;durP1;ratioP1;P2;durP2;ratioP2
17650;SDS011;26663;59.302;18.082;2023-11-21T00:02:26;3.33;;;3.17;;
17650;SDS011;26663;59.302;18.082;2023-11-21T00:05:31;3.47;;;3.17;;
17650;SDS011;26663;59.302;18.082;2023-11-21T00:08:35;3.10;;;3.00;;
17650;SDS011;26663;59.302;18.082;2023-11-21T00:11:39;2.63;;;2.47;;
17650;SDS011;26663;59.302;18.082;2023-11-21T00:14:43;3.03;;;2.90;;
17650;SDS011;26663;59.302;18.082;2023-11-21T00:17:46;3.03;;;2.93;;
17650;SDS011;26663;59.302;18.082;2023-11-21T00:20:51;3.03;;;2.90;;
17650;SDS011;26663;59.302;18.082;2023-11-21T00:23:55;2.60;;;2.50;;
17650;SDS011;26663;59.302;18.082;2023-11-21T00:26:59;2.50;;;2.50;;
17650;SDS011;26663;59.302;18.082;2023-11-21T00:30:03;2.43;;;2.43;;
17650;SDS011;26663;59.302;18.082;2023-11-21T00:33:08;2.50;;;2.50;;
17650;SDS011;26663;59.302;18.082;2023-11-21T00:36:13;2.50;;;2.40;;
17650;SDS011;26663;59.302;18.082;2023-11-21T00:39:17;2.43;;;2.43;;
17650;SDS011;26663;59.302;18.082;2023-11-21T00:42:21;2.37;;;2.27;;
17650;SDS011;26663;59.302;18.082;2023-11-21T00:45:25;2.50;;;2.40;;
17650;SDS011;26663;59.302;18.082;2023-11-21T00:48:29;2.10;;;2.10;;
17650;SDS011;26663;59.302;18.082;2023-11-21T00:51:34;2.17;;;2.17;;
17650;SDS011;26663;59.302;18.082;2023-11-21T00:54:38;2.50;;;2.40;;
17650;SDS011;26663;59.302;18.082;2023-11-21T00:57:42;2.27;;;2.17;;
17650;SDS011;26663;59.302;18.082;2023-11-21T01:00:45;2.20;;;2.20;;
17650;SDS011;26663;59.302;18.082;2023-11-21T01:03:51;2.40;;;2.40;;
17650;SDS011;26663;59.302;18.082;2023-11-21T01:06:57;2.70;;;2.60;;
17650;SDS011;26663;59.302;18.082;2023-11-21T01:10:01;2.13;;;2.13;;
17650;SDS011;26663;59.302;18.082;2023-11-21T01:13:08;2.60;;;2.50;;
17650;SDS011;26663;59.302;18.082;2023-11-21T01:16:12;2.23;;;2.23;;
17650;SDS011;26663;59.302;18.082;2023-11-21T01:19:16;2.30;;;2.30;;
17650;SDS011;26663;59.302;18.082;2023-11-21T01:22:21;2.33;;;2.33;;
17650;SDS011;26663;59.302;18.082;2023-11-21T01:25:28;2.23;;;2.20;;
17650;SDS011;26663;59.302;18.082;2023-11-21T01:28:32;2.23;;;2.23;;
17650;SDS011;26663;59.302;18.082;2023-11-21T01:31:35;2.33;;;2.33;;
17650;SDS011;26663;59.302;18.082;2023-11-21T01:34:40;2.30;;;2.30;;
17650;SDS011;26663;59.302;18.082;2023-11-21T01:37:45;2.43;;;2.43;;
17650;SDS011;26663;59.302;18.082;2023-11-21T01:40:50;2.37;;;2.37;;
17650;SDS011;26663;59.302;18.082;2023-11-21T01:43:54;2.63;;;2.63;;
17650;SDS011;26663;59.302;18.082;2023-11-21T01:46:58;2.33;;;2.30;;
17650;SDS011;26663;59.302;18.082;2023-11-21T01:50:01;2.90;;;2.80;;
17650;SDS011;26663;59.302;18.082;2023-11-21T01:53:08;2.60;;;2.60;;
17650;SDS011;26663;59.302;18.082;2023-11-21T01:56:15;2.40;;;2.40;;
17650;SDS011;26663;59.302;18.082;2023-11-21T01:59:20;2.60;;;2.57;;
17650;SDS011;26663;59.302;18.082;2023-11-21T02:02:25;2.43;;;2.40;;
17650;SDS011;26663;59.302;18.082;2023-11-21T02:05:28;2.40;;;2.40;;
17650;SDS011;26663;59.302;18.082;2023-11-21T02:08:35;2.60;;;2.60;;
17650;SDS011;26663;59.302;18.082;2023-11-21T02:11:40;2.90;;;2.90;;
17650;SDS011;26663;59.302;18.082;2023-11-21T02:14:44;2.53;;;2.53;;
17650;SDS011;26663;59.302;18.082;2023-11-21T02:17:48;2.50;;;2.40;;
17650;SDS011;26663;59.302;18.082;2023-11-21T02:20:55;2.60;;;2.60;;
17650;SDS011;26663;59.302;18.082;2023-11-21T02:24:00;2.33;;;2.33;;
17650;SDS011;26663;59.302;18.082;2023-11-21T02:27:04;2.80;;;2.70;;
17650;SDS011;26663;59.302;18.082;2023-11-21T02:30:09;2.17;;;2.17;;
17650;SDS011;26663;59.302;18.082;2023-11-21T02:33:15;2.47;;;2.40;;
17650;SDS011;26663;59.302;18.082;2023-11-21T02:36:20;2.50;;;2.50;;
17650;SDS011;26663;59.302;18.082;2023-11-21T02:39:25;2.30;;;2.30;;
17650;SDS011;26663;59.302;18.082;2023-11-21T02:42:29;2.30;;;2.30;;
17650;SDS011;26663;59.302;18.082;2023-11-21T02:45:33;2.23;;;2.23;;
17650;SDS011;26663;59.302;18.082;2023-11-21T02:48:37;2.40;;;2.40;;
17650;SDS011;26663;59.302;18.082;2023-11-21T02:51:41;2.43;;;2.43;;
17650;SDS011;26663;59.302;18.082;2023-11-21T02:54:47;2.40;;;2.40;;
17650;SDS011;26663;59.302;18.082;2023-11-21T02:57:50;2.30;;;2.30;;
17650;SDS011;26663;59.302;18.082;2023-11-21T03:00:54;2.27;;;2.27;;
17650;SDS011;26663;59.302;18.082;2023-11-21T03:03:58;2.50;;;2.50;;
17650;SDS011;26663;59.302;18.082;2023-11-21T03:07:02;2.20;;;2.20;;
17650;SDS011;26663;59.302;18.082;2023-11-21T03:10:09;2.40;;;2.40;;
17650;SDS011;26663;59.302;18.082;2023-11-21T03:13:13;2.60;;;2.50;;
17650;SDS011;26663;59.302;18.082;2023-11-21T03:16:18;2.33;;;2.33;;
17650;SDS011;26663;59.302;18.082;2023-11-21T03:19:21;2.50;;;2.50;;
17650;SDS011;26663;59.302;18.082;2023-11-21T03:22:25;2.60;;;2.60;;
17650;SDS011;26663;59.302;18.082;2023-11-21T03:25:30;2.30;;;2.30;;
17650;SDS011;26663;59.302;18.082;2023-11-21T03:28:34;2.43;;;2.43;;
17650;SDS011;26663;59.302;18.082;2023-11-21T03:31:38;2.60;;;2.50;;
17650;SDS011;26663;59.302;18.082;2023-11-21T03:34:52;2.70;;;2.60;;
17650;SDS011;26663;59.302;18.082;2023-11-21T03:37:58;2.50;;;2.50;;
17650;SDS011;26663;59.302;18.082;2023-11-21T03:41:06;2.70;;;2.70;;
17650;SDS011;26663;59.302;18.082;2023-11-21T03:44:12;2.63;;;2.63;;
17650;SDS011;26663;59.302;18.082;2023-11-21T03:47:16;2.60;;;2.60;;
17650;SDS011;26663;59.302;18.082;2023-11-21T03:50:21;2.60;;;2.50;;
17650;SDS011;26663;59.302;18.082;2023-11-21T03:53:25;2.77;;;2.77;;
17650;SDS011;26663;59.302;18.082;2023-11-21T03:56:30;2.70;;;2.70;;
17650;SDS011;26663;59.302;18.082;2023-11-21T03:59:34;2.53;;;2.53;;
17650;SDS011;26663;59.302;18.082;2023-11-21T04:02:38;2.67;;;2.67;;
17650;SDS011;26663;59.302;18.082;2023-11-21T04:05:43;3.07;;;2.97;;
17650;SDS011;26663;59.302;18.082;2023-11-21T04:08:48;3.00;;;2.90;;
17650;SDS011;26663;59.302;18.082;2023-11-21T04:11:53;2.87;;;2.80;;
17650;SDS011;26663;59.302;18.082;2023-11-21T04:14:57;3.07;;;3.07;;
17650;SDS011;26663;59.302;18.082;2023-11-21T04:18:01;3.17;;;3.07;;
17650;SDS011;26663;59.302;18.082;2023-11-21T04:21:05;3.23;;;3.13;;
17650;SDS011;26663;59.302;18.082;2023-11-21T04:24:09;3.07;;;2.97;;
17650;SDS011;26663;59.302;18.082;2023-11-21T04:27:14;3.00;;;2.90;;
17650;SDS011;26663;59.302;18.082;2023-11-21T04:30:20;2.87;;;2.87;;
17650;SDS011;26663;59.302;18.082;2023-11-21T04:33:24;2.60;;;2.60;;
17650;SDS011;26663;59.302;18.082;2023-11-21T04:36:27;2.73;;;2.63;;
17650;SDS011;26663;59.302;18.082;2023-11-21T04:39:32;2.73;;;2.70;;
17650;SDS011;26663;59.302;18.082;2023-11-21T04:42:37;2.90;;;2.80;;
17650;SDS011;26663;59.302;18.082;2023-11-21T04:45:41;2.83;;;2.40;;
17650;SDS011;26663;59.302;18.082;2023-11-21T04:48:45;2.67;;;2.67;;
17650;SDS011;26663;59.302;18.082;2023-11-21T04:51:49;2.27;;;2.27;;
17650;SDS011;26663;59.302;18.082;2023-11-21T04:54:53;2.60;;;2.60;;
17650;SDS011;26663;59.302;18.082;2023-11-21T04:58:00;2.60;;;2.53;;
17650;SDS011;26663;59.302;18.082;2023-11-21T05:01:07;2.30;;;2.20;;
17650;SDS011;26663;59.302;18.082;2023-11-21T05:04:11;2.83;;;2.63;;
17650;SDS011;26663;59.302;18.082;2023-11-21T05:07:15;2.30;;;2.30;;
17650;SDS011;26663;59.302;18.082;2023-11-21T05:10:19;2.10;;;2.10;;
17650;SDS011;26663;59.302;18.082;2023-11-21T05:13:25;1.90;;;1.80;;
17650;SDS011;26663;59.302;18.082;2023-11-21T05:16:30;2.00;;;1.97;;
17650;SDS011;26663;59.302;18.082;2023-11-21T05:19:34;2.03;;;2.03;;
17650;SDS011;26663;59.302;18.082;2023-11-21T05:22:38;2.10;;;2.00;;
17650;SDS011;26663;59.302;18.082;2023-11-21T05:25:42;1.93;;;1.93;;
17650;SDS011;26663;59.302;18.082;2023-11-21T05:28:47;2.00;;;2.00;;
17650;SDS011;26663;59.302;18.082;2023-11-21T05:31:51;2.07;;;2.07;;
17650;SDS011;26663;59.302;18.082;2023-11-21T05:34:55;1.97;;;1.97;;
17650;SDS011;26663;59.302;18.082;2023-11-21T05:37:58;2.13;;;2.13;;
17650;SDS011;26663;59.302;18.082;2023-11-21T05:41:02;1.97;;;1.97;;
17650;SDS011;26663;59.302;18.082;2023-11-21T05:44:08;1.93;;;1.93;;
17650;SDS011;26663;59.302;18.082;2023-11-21T05:47:12;1.90;;;1.90;;
17650;SDS011;26663;59.302;18.082;2023-11-21T05:50:16;2.03;;;2.03;;
17650;SDS011;26663;59.302;18.082;2023-11-21T05:53:20;1.83;;;1.83;;
17650;SDS011;26663;59.302;18.082;2023-11-21T05:56:24;2.13;;;2.13;;
17650;SDS011;26663;59.302;18.082;2023-11-21T05:59:29;2.00;;;2.00;;
17650;SDS011;26663;59.302;18.082;2023-11-21T06:02:33;1.97;;;1.97;;
17650;SDS011;26663;59.302;18.082;2023-11-21T06:05:37;1.80;;;1.80;;
17650;SDS011;26663;59.302;18.082;2023-11-21T06:08:41;2.10;;;2.10;;
17650;SDS011;26663;59.302;18.082;2023-11-21T06:11:45;2.03;;;1.87;;
17650;SDS011;26663;59.302;18.082;2023-11-21T06:14:49;1.87;;;1.87;;
17650;SDS011;26663;59.302;18.082;2023-11-21T06:17:53;2.10;;;2.10;;
17650;SDS011;26663;59.302;18.082;2023-11-21T06:20:57;2.00;;;2.00;;
17650;SDS011;26663;59.302;18.082;2023-11-21T06:24:02;1.90;;;1.90;;
17650;SDS011;26663;59.302;18.082;2023-11-21T06:27:06;2.00;;;2.00;;
17650;SDS011;26663;59.302;18.082;2023-11-21T06:30:12;2.10;;;2.10;;
17650;SDS011;26663;59.302;18.082;2023-11-21T06:33:17;2.40;;;2.40;;
17650;SDS011;26663;59.302;18.082;2023-11-21T06:36:21;2.10;;;2.10;;
17650;SDS011;26663;59.302;18.082;2023-11-21T06:39:25;2.00;;;2.00;;
17650;SDS011;26663;59.302;18.082;2023-11-21T06:45:54;2.20;;;2.20;;
17650;SDS011;26663;59.302;18.082;2023-11-21T06:48:57;2.50;;;2.40;;
17650;SDS011;26663;59.302;18.082;2023-11-21T06:52:01;2.40;;;2.40;;
17650;SDS011;26663;59.302;18.082;2023-11-21T06:55:06;2.40;;;2.30;;
17650;SDS011;26663;59.302;18.082;2023-11-21T06:58:11;2.60;;;2.40;;
17650;SDS011;26663;59.302;18.082;2023-11-21T07:01:17;2.20;;;2.20;;
17650;SDS011;26663;59.302;18.082;2023-11-21T07:04:21;2.30;;;2.30;;
17650;SDS011;26663;59.302;18.082;2023-11-21T07:07:27;3.57;;;2.97;;
17650;SDS011;26663;59.302;18.082;2023-11-21T07:10:30;2.80;;;2.70;;
17650;SDS011;26663;59.302;18.082;2023-11-21T07:13:34;2.40;;;2.40;;
17650;SDS011;26663;59.302;18.082;2023-11-21T07:16:40;2.53;;;2.53;;
17650;SDS011;26663;59.302;18.082;2023-11-21T07:19:44;2.70;;;2.60;;
17650;SDS011;26663;59.302;18.082;2023-11-21T07:22:47;2.73;;;2.53;;
17650;SDS011;26663;59.302;18.082;2023-11-21T07:25:51;2.33;;;2.30;;
17650;SDS011;26663;59.302;18.082;2023-11-21T07:28:55;2.60;;;2.50;;
17650;SDS011;26663;59.302;18.082;2023-11-21T07:32:00;2.53;;;2.53;;
17650;SDS011;26663;59.302;18.082;2023-11-21T07:35:04;2.60;;;2.50;;
17650;SDS011;26663;59.302;18.082;2023-11-21T07:38:10;2.40;;;2.30;;
17650;SDS011;26663;59.302;18.082;2023-11-21T07:41:14;2.50;;;2.50;;
17650;SDS011;26663;59.302;18.082;2023-11-21T07:44:32;2.73;;;2.63;;
17650;SDS011;26663;59.302;18.082;2023-11-21T07:47:37;3.03;;;2.30;;
17650;SDS011;26663;59.302;18.082;2023-11-21T07:50:41;2.30;;;2.27;;
17650;SDS011;26663;59.302;18.082;2023-11-21T07:53:45;2.10;;;2.10;;
17650;SDS011;26663;59.302;18.082;2023-11-21T07:56:49;2.40;;;2.40;;
17650;SDS011;26663;59.302;18.082;2023-11-21T07:59:52;2.73;;;2.70;;
17650;SDS011;26663;59.302;18.082;2023-11-21T08:02:59;2.33;;;2.30;;
17650;SDS011;26663;59.302;18.082;2023-11-21T08:06:03;2.30;;;2.17;;
17650;SDS011;26663;59.302;18.082;2023-11-21T08:09:08;2.30;;;2.30;;
17650;SDS011;26663;59.302;18.082;2023-11-21T08:12:12;2.23;;;2.20;;
17650;SDS011;26663;59.302;18.082;2023-11-21T08:15:17;2.30;;;2.20;;
17650;SDS011;26663;59.302;18.082;2023-11-21T08:18:22;2.47;;;2.33;;
17650;SDS011;26663;59.302;18.082;2023-11-21T08:21:26;2.00;;;2.00;;
17650;SDS011;26663;59.302;18.082;2023-11-21T08:24:31;2.30;;;2.30;;
17650;SDS011;26663;59.302;18.082;2023-11-21T08:27:35;2.87;;;2.17;;
17650;SDS011;26663;59.302;18.082;2023-11-21T08:30:38;1.90;;;1.90;;
17650;SDS011;26663;59.302;18.082;2023-11-21T08:33:45;2.30;;;2.20;;
17650;SDS011;26663;59.302;18.082;2023-11-21T08:36:48;1.80;;;1.80;;
17650;SDS011;26663;59.302;18.082;2023-11-21T08:39:53;2.07;;;2.00;;
17650;SDS011;26663;59.302;18.082;2023-11-21T08:42:57;2.03;;;2.03;;
17650;SDS011;26663;59.302;18.082;2023-11-21T08:46:01;2.20;;;2.10;;
17650;SDS011;26663;59.302;18.082;2023-11-21T08:49:06;4.10;;;2.10;;
17650;SDS011;26663;59.302;18.082;2023-11-21T08:52:11;2.40;;;2.30;;
17650;SDS011;26663;59.302;18.082;2023-11-21T08:55:14;2.70;;;2.60;;
17650;SDS011;26663;59.302;18.082;2023-11-21T08:58:18;2.30;;;2.30;;
17650;SDS011;26663;59.302;18.082;2023-11-21T09:01:22;2.40;;;2.40;;
17650;SDS011;26663;59.302;18.082;2023-11-21T09:04:28;2.60;;;2.50;;
17650;SDS011;26663;59.302;18.082;2023-11-21T09:07:32;2.70;;;2.60;;
17650;SDS011;26663;59.302;18.082;2023-11-21T09:10:36;2.20;;;2.10;;
17650;SDS011;26663;59.302;18.082;2023-11-21T09:13:41;2.17;;;2.03;;
17650;SDS011;26663;59.302;18.082;2023-11-21T09:16:45;2.10;;;2.10;;
17650;SDS011;26663;59.302;18.082;2023-11-21T09:19:50;1.90;;;1.90;;
17650;SDS011;26663;59.302;18.082;2023-11-21T09:22:54;2.07;;;2.07;;
17650;SDS011;26663;59.302;18.082;2023-11-21T09:25:58;2.10;;;1.90;;
17650;SDS011;26663;59.302;18.082;2023-11-21T09:29:03;1.83;;;1.83;;
17650;SDS011;26663;59.302;18.082;2023-11-21T09:32:07;1.80;;;1.80;;
17650;SDS011;26663;59.302;18.082;2023-11-21T09:35:14;1.93;;;1.90;;
17650;SDS011;26663;59.302;18.082;2023-11-21T09:38:19;1.93;;;1.90;;
17650;SDS011;26663;59.302;18.082;2023-11-21T09:41:25;1.70;;;1.70;;
17650;SDS011;26663;59.302;18.082;2023-11-21T09:44:35;1.90;;;1.80;;
17650;SDS011;26663;59.302;18.082;2023-11-21T09:47:57;2.13;;;2.03;;
17650;SDS011;26663;59.302;18.082;2023-11-21T09:51:03;2.10;;;2.10;;
17650;SDS011;26663;59.302;18.082;2023-11-21T09:54:07;2.00;;;2.00;;
17650;SDS011;26663;59.302;18.082;2023-11-21T09:57:12;2.30;;;2.20;;
17650;SDS011;26663;59.302;18.082;2023-11-21T10:00:16;2.00;;;2.00;;
17650;SDS011;26663;59.302;18.082;2023-11-21T10:03:23;2.33;;;2.23;;
17650;SDS011;26663;59.302;18.082;2023-11-21T10:06:28;2.30;;;2.20;;
17650;SDS011;26663;59.302;18.082;2023-11-21T10:09:32;2.63;;;2.57;;
17650;SDS011;26663;59.302;18.082;2023-11-21T10:12:35;3.60;;;2.90;;
17650;SDS011;26663;59.302;18.082;2023-11-21T10:15:40;5.27;;;3.93;;
17650;SDS011;26663;59.302;18.082;2023-11-21T10:18:51;2.57;;;2.47;;
17650;SDS011;26663;59.302;18.082;2023-11-21T10:22:06;2.33;;;2.23;;
17650;SDS011;26663;59.302;18.082;2023-11-21T10:25:11;2.40;;;2.30;;
17650;SDS011;26663;59.302;18.082;2023-11-21T10:28:16;2.67;;;2.47;;
17650;SDS011;26663;59.302;18.082;2023-11-21T10:31:21;2.27;;;2.17;;
17650;SDS011;26663;59.302;18.082;2023-11-21T10:34:26;3.27;;;2.57;;
17650;SDS011;26663;59.302;18.082;2023-11-21T10:37:31;2.83;;;2.70;;
17650;SDS011;26663;59.302;18.082;2023-11-21T10:40:37;2.40;;;2.37;;
17650;SDS011;26663;59.302;18.082;2023-11-21T10:43:43;2.33;;;2.23;;
17650;SDS011;26663;59.302;18.082;2023-11-21T10:46:48;4.80;;;3.00;;
17650;SDS011;26663;59.302;18.082;2023-11-21T10:49:53;2.93;;;2.73;;
17650;SDS011;26663;59.302;18.082;2023-11-21T10:52:58;2.87;;;2.50;;
17650;SDS011;26663;59.302;18.082;2023-11-21T10:56:02;2.33;;;2.33;;
17650;SDS011;26663;59.302;18.082;2023-11-21T10:59:09;2.73;;;2.63;;
17650;SDS011;26663;59.302;18.082;2023-11-21T11:02:19;2.93;;;2.73;;
17650;SDS011;26663;59.302;18.082;2023-11-21T11:05:28;4.13;;;3.77;;
17650;SDS011;26663;59.302;18.082;2023-11-21T11:08:35;4.03;;;3.37;;
17650;SDS011;26663;59.302;18.082;2023-11-21T11:11:39;3.10;;;3.00;;
17650;SDS011;26663;59.302;18.082;2023-11-21T11:14:46;3.27;;;2.57;;
17650;SDS011;26663;59.302;18.082;2023-11-21T11:17:51;3.43;;;2.50;;
17650;SDS011;26663;59.302;18.082;2023-11-21T11:21:00;2.97;;;2.87;;
17650;SDS011;26663;59.302;18.082;2023-11-21T11:24:13;3.03;;;2.93;;
17650;SDS011;26663;59.302;18.082;2023-11-21T11:27:29;2.40;;;2.40;;
17650;SDS011;26663;59.302;18.082;2023-11-21T11:30:39;2.27;;;2.27;;
17650;SDS011;26663;59.302;18.082;2023-11-21T11:33:48;2.87;;;2.77;;
17650;SDS011;26663;59.302;18.082;2023-11-21T11:36:58;2.37;;;2.27;;
17650;SDS011;26663;59.302;18.082;2023-11-21T11:40:07;2.90;;;2.70;;
17650;SDS011;26663;59.302;18.082;2023-11-21T11:43:12;2.47;;;2.47;;
17650;SDS011;26663;59.302;18.082;2023-11-21T11:46:15;3.07;;;2.97;;
17650;SDS011;26663;59.302;18.082;2023-11-21T11:49:23;2.73;;;2.67;;
17650;SDS011;26663;59.302;18.082;2023-11-21T11:52:37;2.27;;;2.20;;
17650;SDS011;26663;59.302;18.082;2023-11-21T11:55:43;2.03;;;1.93;;
17650;SDS011;26663;59.302;18.082;2023-11-21T11:58:47;1.80;;;1.80;;
17650;SDS011;26663;59.302;18.082;2023-11-21T12:01:51;2.13;;;2.07;;
17650;SDS011;26663;59.302;18.082;2023-11-21T12:04:55;1.97;;;1.97;;
17650;SDS011;26663;59.302;18.082;2023-11-21T12:08:01;2.50;;;2.00;;
17650;SDS011;26663;59.302;18.082;2023-11-21T12:11:07;3.27;;;1.80;;
17650;SDS011;26663;59.302;18.082;2023-11-21T12:14:13;1.70;;;1.70;;
17650;SDS011;26663;59.302;18.082;2023-11-21T12:17:17;2.57;;;1.87;;
17650;SDS011;26663;59.302;18.082;2023-11-21T12:20:21;2.10;;;2.00;;
17650;SDS011;26663;59.302;18.082;2023-11-21T12:23:26;1.80;;;1.70;;
17650;SDS011;26663;59.302;18.082;2023-11-21T12:26:32;1.43;;;1.43;;
17650;SDS011;26663;59.302;18.082;2023-11-21T12:29:36;1.73;;;1.73;;
17650;SDS011;26663;59.302;18.082;2023-11-21T12:32:41;2.03;;;1.93;;
17650;SDS011;26663;59.302;18.082;2023-11-21T12:35:45;1.63;;;1.63;;
17650;SDS011;26663;59.302;18.082;2023-11-21T12:38:49;1.70;;;1.70;;
17650;SDS011;26663;59.302;18.082;2023-11-21T12:41:54;2.00;;;1.60;;
17650;SDS011;26663;59.302;18.082;2023-11-21T12:45:06;2.00;;;1.73;;
17650;SDS011;26663;59.302;18.082;2023-11-21T12:48:17;1.53;;;1.43;;
17650;SDS011;26663;59.302;18.082;2023-11-21T12:51:26;2.03;;;1.60;;
17650;SDS011;26663;59.302;18.082;2023-11-21T12:54:31;1.73;;;1.73;;
17650;SDS011;26663;59.302;18.082;2023-11-21T12:57:36;1.87;;;1.83;;
17650;SDS011;26663;59.302;18.082;2023-11-21T13:00:42;1.77;;;1.77;;
17650;SDS011;26663;59.302;18.082;2023-11-21T13:03:47;2.10;;;1.90;;
17650;SDS011;26663;59.302;18.082;2023-11-21T13:06:53;1.80;;;1.80;;
17650;SDS011;26663;59.302;18.082;2023-11-21T13:09:58;1.40;;;1.40;;
17650;SDS011;26663;59.302;18.082;2023-11-21T13:13:04;1.37;;;1.37;;
17650;SDS011;26663;59.302;18.082;2023-11-21T13:16:11;1.60;;;1.60;;
17650;SDS011;26663;59.302;18.082;2023-11-21T13:19:15;1.73;;;1.60;;
17650;SDS011;26663;59.302;18.082;2023-11-21T13:22:19;1.60;;;1.60;;
17650;SDS011;26663;59.302;18.082;2023-11-21T13:25:23;1.73;;;1.73;;
17650;SDS011;26663;59.302;18.082;2023-11-21T13:28:31;1.60;;;1.60;;
17650;SDS011;26663;59.302;18.082;2023-11-21T13:31:36;2.17;;;1.70;;
17650;SDS011;26663;59.302;18.082;2023-11-21T13:34:41;1.40;;;1.40;;
17650;SDS011;26663;59.302;18.082;2023-11-21T13:37:48;1.83;;;1.73;;
17650;SDS011;26663;59.302;18.082;2023-11-21T13:40:55;2.40;;;2.30;;
17650;SDS011;26663;59.302;18.082;2023-11-21T13:44:01;2.60;;;2.20;;
17650;SDS011;26663;59.302;18.082;2023-11-21T13:47:17;1.60;;;1.50;;
17650;SDS011;26663;59.302;18.082;2023-11-21T13:50:21;1.53;;;1.53;;
17650;SDS011;26663;59.302;18.082;2023-11-21T13:53:28;1.60;;;1.60;;
17650;SDS011;26663;59.302;18.082;2023-11-21T13:56:33;1.80;;;1.77;;
17650;SDS011;26663;59.302;18.082;2023-11-21T13:59:38;1.47;;;1.40;;
17650;SDS011;26663;59.302;18.082;2023-11-21T14:02:41;1.40;;;1.40;;
17650;SDS011;26663;59.302;18.082;2023-11-21T14:05:46;1.43;;;1.43;;
17650;SDS011;26663;59.302;18.082;2023-11-21T14:08:53;2.13;;;2.03;;
17650;SDS011;26663;59.302;18.082;2023-11-21T14:11:58;1.80;;;1.80;;
17650;SDS011;26663;59.302;18.082;2023-11-21T14:15:06;1.60;;;1.60;;
17650;SDS011;26663;59.302;18.082;2023-11-21T14:18:12;2.40;;;1.43;;
17650;SDS011;26663;59.302;18.082;2023-11-21T14:21:19;1.57;;;1.57;;
17650;SDS011;26663;59.302;18.082;2023-11-21T14:24:23;2.77;;;1.70;;
17650;SDS011;26663;59.302;18.082;2023-11-21T14:27:27;2.03;;;1.93;;
17650;SDS011;26663;59.302;18.082;2023-11-21T14:30:32;1.90;;;1.80;;
17650;SDS011;26663;59.302;18.082;2023-11-21T14:33:38;1.80;;;1.80;;
17650;SDS011;26663;59.302;18.082;2023-11-21T14:36:41;1.97;;;1.90;;
17650;SDS011;26663;59.302;18.082;2023-11-21T14:39:46;1.97;;;1.87;;
17650;SDS011;26663;59.302;18.082;2023-11-21T14:42:52;1.77;;;1.77;;
17650;SDS011;26663;59.302;18.082;2023-11-21T14:45:59;1.83;;;1.83;;
17650;SDS011;26663;59.302;18.082;2023-11-21T14:49:04;3.13;;;1.63;;
17650;SDS011;26663;59.302;18.082;2023-11-21T14:52:21;1.40;;;1.40;;
17650;SDS011;26663;59.302;18.082;2023-11-21T14:55:38;2.37;;;2.00;;
17650;SDS011;26663;59.302;18.082;2023-11-21T14:58:55;1.93;;;1.83;;
17650;SDS011;26663;59.302;18.082;2023-11-21T15:02:00;1.97;;;1.83;;
17650;SDS011;26663;59.302;18.082;2023-11-21T15:05:16;2.87;;;2.10;;
17650;SDS011;26663;59.302;18.082;2023-11-21T15:08:21;2.00;;;1.90;;
17650;SDS011;26663;59.302;18.082;2023-11-21T15:11:29;1.90;;;1.80;;
17650;SDS011;26663;59.302;18.082;2023-11-21T15:14:33;2.13;;;2.10;;
17650;SDS011;26663;59.302;18.082;2023-11-21T15:17:40;2.20;;;2.20;;
17650;SDS011;26663;59.302;18.082;2023-11-21T15:20:46;2.00;;;2.00;;
17650;SDS011;26663;59.302;18.082;2023-11-21T15:23:50;2.30;;;2.20;;
17650;SDS011;26663;59.302;18.082;2023-11-21T15:26:54;2.03;;;1.93;;
17650;SDS011;26663;59.302;18.082;2023-11-21T15:29:57;3.40;;;2.03;;
17650;SDS011;26663;59.302;18.082;2023-11-21T15:33:02;4.23;;;2.17;;
17650;SDS011;26663;59.302;18.082;2023-11-21T15:36:07;2.50;;;2.27;;
17650;SDS011;26663;59.302;18.082;2023-11-21T15:39:12;4.37;;;2.20;;
17650;SDS011;26663;59.302;18.082;2023-11-21T15:42:15;2.23;;;2.13;;
17650;SDS011;26663;59.302;18.082;2023-11-21T15:45:19;5.93;;;2.40;;
17650;SDS011;26663;59.302;18.082;2023-11-21T15:48:26;1.80;;;1.80;;
17650;SDS011;26663;59.302;18.082;2023-11-21T15:51:32;2.63;;;2.23;;
17650;SDS011;26663;59.302;18.082;2023-11-21T15:54:38;2.37;;;2.37;;
17650;SDS011;26663;59.302;18.082;2023-11-21T15:57:42;2.30;;;2.20;;
17650;SDS011;26663;59.302;18.082;2023-11-21T16:00:45;4.30;;;2.30;;
17650;SDS011;26663;59.302;18.082;2023-11-21T16:03:51;2.20;;;2.20;;
17650;SDS011;26663;59.302;18.082;2023-11-21T16:06:55;2.13;;;2.13;;
17650;SDS011;26663;59.302;18.082;2023-11-21T16:10:00;2.13;;;2.03;;
17650;SDS011;26663;59.302;18.082;2023-11-21T16:13:04;1.90;;;1.90;;
17650;SDS011;26663;59.302;18.082;2023-11-21T16:16:10;1.80;;;1.80;;
17650;SDS011;26663;59.302;18.082;2023-11-21T16:19:15;2.10;;;2.00;;
17650;SDS011;26663;59.302;18.082;2023-11-21T16:22:18;1.83;;;1.73;;
17650;SDS011;26663;59.302;18.082;2023-11-21T16:25:22;1.97;;;1.97;;
17650;SDS011;26663;59.302;18.082;2023-11-21T16:28:26;1.70;;;1.70;;
17650;SDS011;26663;59.302;18.082;2023-11-21T16:31:29;2.93;;;1.70;;
17650;SDS011;26663;59.302;18.082;2023-11-21T16:34:38;1.60;;;1.60;;
17650;SDS011;26663;59.302;18.082;2023-11-21T16:37:43;1.50;;;1.50;;
17650;SDS011;26663;59.302;18.082;2023-11-21T16:40:50;1.80;;;1.80;;
17650;SDS011;26663;59.302;18.082;2023-11-21T16:43:53;4.10;;;1.70;;
17650;SDS011;26663;59.302;18.082;2023-11-21T16:46:57;1.67;;;1.50;;
17650;SDS011;26663;59.302;18.082;2023-11-21T16:50:08;1.60;;;1.60;;
17650;SDS011;26663;59.302;18.082;2023-11-21T16:53:12;2.53;;;1.67;;
17650;SDS011;26663;59.302;18.082;2023-11-21T16:56:16;1.70;;;1.60;;
17650;SDS011;26663;59.302;18.082;2023-11-21T16:59:20;2.63;;;1.70;;
17650;SDS011;26663;59.302;18.082;2023-11-21T17:02:24;1.70;;;1.60;;
17650;SDS011;26663;59.302;18.082;2023-11-21T17:05:29;2.73;;;1.70;;
17650;SDS011;26663;59.302;18.082;2023-11-21T17:08:33;1.70;;;1.70;;
17650;SDS011;26663;59.302;18.082;2023-11-21T17:11:37;1.60;;;1.60;;
17650;SDS011;26663;59.302;18.082;2023-11-21T17:14:41;1.60;;;1.60;;
17650;SDS011;26663;59.302;18.082;2023-11-21T17:17:45;2.90;;;1.70;;
17650;SDS011;26663;59.302;18.082;2023-11-21T17:20:50;2.53;;;1.67;;
17650;SDS011;26663;59.302;18.082;2023-11-21T17:23:54;1.80;;;1.80;;
17650;SDS011;26663;59.302;18.082;2023-11-21T17:26:57;2.10;;;2.00;;
17650;SDS011;26663;59.302;18.082;2023-11-21T17:30:01;2.13;;;2.03;;
17650;SDS011;26663;59.302;18.082;2023-11-21T17:33:05;2.57;;;2.40;;
17650;SDS011;26663;59.302;18.082;2023-11-21T17:36:11;2.60;;;2.40;;
17650;SDS011;26663;59.302;18.082;2023-11-21T17:39:16;2.17;;;2.07;;
17650;SDS011;26663;59.302;18.082;2023-11-21T17:42:20;2.10;;;2.00;;
17650;SDS011;26663;59.302;18.082;2023-11-21T17:45:24;2.00;;;1.90;;
17650;SDS011;26663;59.302;18.082;2023-11-21T17:48:28;2.30;;;2.10;;
17650;SDS011;26663;59.302;18.082;2023-11-21T17:51:37;2.57;;;2.47;;
17650;SDS011;26663;59.302;18.082;2023-11-21T17:54:42;4.63;;;2.00;;
17650;SDS011;26663;59.302;18.082;2023-11-21T17:57:45;1.90;;;1.50;;
17650;SDS011;26663;59.302;18.082;2023-11-21T18:00:49;1.40;;;1.40;;
17650;SDS011;26663;59.302;18.082;2023-11-21T18:03:53;1.60;;;1.50;;
17650;SDS011;26663;59.302;18.082;2023-11-21T18:06:58;1.50;;;1.50;;
17650;SDS011;26663;59.302;18.082;2023-11-21T18:10:02;1.80;;;1.70;;
17650;SDS011;26663;59.302;18.082;2023-11-21T18:13:07;2.00;;;1.90;;
17650;SDS011;26663;59.302;18.082;2023-11-21T18:16:13;1.63;;;1.53;;
17650;SDS011;26663;59.302;18.082;2023-11-21T18:19:17;2.53;;;1.70;;
17650;SDS011;26663;59.302;18.082;2023-11-21T18:22:23;1.83;;;1.77;;